Time;durP1;ratioP1;P1;durP2;ratioP2;P2;SDS_P1;SDS_P2;PMS_P1;PMS_P2;Temp;Humidity;BMP_temperature;BMP_pressure;BME280_temperature;BME280_humidity;BME280_pressure;Samples;Min_cycle;Max_cycle;Signal;HPM_P1;HPM_P2
2023/08/02 00:00:21;;;;;;;11.15;4.38;;;;;;;27.42;47.79;97922.13;2086999;28;20051;-51
2023/08/02 00:01:22;;;;;;;13.07;5.38;;;;;;;27.46;47.53;97921.25;2087261;28;20138;-53
2023/08/02 00:02:24;;;;;;;10.48;4.40;;;;;;;27.46;47.45;97912.28;2088005;28;20522;-53
2023/08/02 00:03:24;;;;;;;8.75;4.85;;;;;;;27.46;47.68;97915.00;2086002;28;20052;-47
2023/08/02 00:04:26;;;;;;;11.05;4.38;;;;;;;27.49;47.72;97907.09;2088053;28;20292;-50
2023/08/02 00:05:27;;;;;;;14.13;4.70;;;;;;;27.50;47.46;97910.66;2085384;28;20071;-47
2023/08/02 00:06:29;;;;;;;10.65;4.63;;;;;;;27.45;47.87;97910.66;2089083;28;20667;-55
2023/08/02 00:07:29;;;;;;;11.93;4.20;;;;;;;27.43;47.84;97910.94;2086736;28;20056;-54
2023/08/02 00:08:31;;;;;;;11.73;4.38;;;;;;;27.42;47.94;97913.94;2089497;28;20041;-55
2023/08/02 00:09:33;;;;;;;14.10;4.72;;;;;;;27.45;47.73;97914.19;2088432;28;20055;-51
2023/08/02 00:10:36;;;;;;;11.70;4.93;;;;;;;27.48;47.74;97912.81;2087026;28;20063;-54
2023/08/02 00:11:37;;;;;;;12.32;4.30;;;;;;;27.45;47.65;97911.47;2086895;28;20105;-53
2023/08/02 00:12:39;;;;;;;9.43;3.78;;;;;;;27.47;47.78;97905.72;2086940;28;20130;-56
2023/08/02 00:13:40;;;;;;;9.85;3.90;;;;;;;27.43;47.72;97901.94;2086128;28;20110;-51
2023/08/02 00:14:43;;;;;;;12.07;4.20;;;;;;;27.44;47.76;97900.84;2086251;28;20056;-52
2023/08/02 00:15:44;;;;;;;11.90;5.35;;;;;;;27.46;47.83;97891.31;2085299;28;20140;-50
2023/08/02 00:16:46;;;;;;;9.63;4.30;;;;;;;27.49;47.48;97884.47;2086944;28;20495;-47
2023/08/02 00:17:47;;;;;;;11.20;4.00;;;;;;;27.51;47.47;97890.47;2087776;28;20067;-54
2023/08/02 00:18:48;;;;;;;13.32;5.20;;;;;;;27.51;47.58;97890.47;2086669;28;20048;-54
2023/08/02 00:19:49;;;;;;;8.27;4.28;;;;;;;27.51;47.80;97890.47;2087853;28;20049;-54
2023/08/02 00:20:51;;;;;;;15.52;4.60;;;;;;;27.44;47.79;97890.75;2087144;28;20048;-48
2023/08/02 00:21:52;;;;;;;9.25;4.50;;;;;;;27.43;47.83;97888.34;2085954;28;20057;-53
2023/08/02 00:22:53;;;;;;;11.52;4.35;;;;;;;27.45;47.71;97891.59;2085197;28;20055;-55
2023/08/02 00:23:54;;;;;;;12.57;4.68;;;;;;;27.48;47.50;97896.47;2084834;28;20093;-51
2023/08/02 00:24:56;;;;;;;12.85;3.78;;;;;;;27.49;47.56;97892.66;2085886;28;20053;-55
2023/08/02 00:25:57;;;;;;;8.73;3.53;;;;;;;27.50;47.98;97900.56;2086817;28;20104;-55
2023/08/02 00:26:58;;;;;;;11.13;4.63;;;;;;;27.50;47.68;97897.84;2085460;28;20536;-50
2023/08/02 00:27:59;;;;;;;10.73;3.88;;;;;;;27.51;47.72;97906.81;2085485;28;20094;-52
2023/08/02 00:29:01;;;;;;;11.98;4.78;;;;;;;27.49;47.65;97906.28;2085676;28;20569;-52
2023/08/02 00:30:04;;;;;;;9.13;4.32;;;;;;;27.48;47.73;97905.47;2089652;28;20048;-51
2023/08/02 00:31:06;;;;;;;8.38;4.35;;;;;;;27.50;47.94;97905.19;2085672;28;20495;-53
2023/08/02 00:32:07;;;;;;;10.05;4.30;;;;;;;27.46;47.79;97906.84;2089382;28;20085;-52
2023/08/02 00:33:09;;;;;;;10.07;4.18;;;;;;;27.48;47.59;97907.38;2086001;28;20091;-55
2023/08/02 00:34:09;;;;;;;10.68;4.05;;;;;;;27.50;47.81;97906.00;2088461;28;20049;-50
2023/08/02 00:35:11;;;;;;;8.25;4.68;;;;;;;27.48;47.41;97901.94;2088263;28;20578;-50
2023/08/02 00:36:12;;;;;;;12.30;4.15;;;;;;;27.46;47.61;97904.09;2086127;28;20087;-47
2023/08/02 00:37:14;;;;;;;12.13;4.70;;;;;;;27.42;47.93;97913.94;2085968;28;20040;-50
2023/08/02 00:38:15;;;;;;;9.32;4.88;;;;;;;27.43;48.00;97910.13;2081298;28;20041;-47
2023/08/02 00:39:16;;;;;;;9.43;4.90;;;;;;;27.33;48.18;97905.50;2079475;28;20045;-50
2023/08/02 00:40:17;;;;;;;13.63;4.07;;;;;;;27.27;48.16;97912.88;2077869;28;20060;-54
2023/08/02 00:41:18;;;;;;;15.40;5.32;;;;;;;27.21;48.32;97908.56;2076313;28;20072;-47
2023/08/02 00:42:22;;;;;;;10.90;4.47;;;;;;;27.15;48.34;97904.19;2078187;28;20041;-53
2023/08/02 00:43:22;;;;;;;11.65;4.72;;;;;;;27.13;48.27;97898.22;2075648;28;20111;-51
2023/08/02 00:44:24;;;;;;;18.80;4.53;;;;;;;27.11;48.43;97900.41;2077892;28;20045;-55
2023/08/02 00:45:26;;;;;;;13.82;4.93;;;;;;;27.09;48.68;97902.59;2081095;28;20048;-53
2023/08/02 00:46:28;;;;;;;10.45;4.57;;;;;;;27.03;48.49;97892.81;2086523;28;20408;-52
2023/08/02 00:47:30;;;;;;;13.38;4.22;;;;;;;27.10;48.60;97901.50;2085762;28;20060;-53
2023/08/02 00:48:32;;;;;;;12.45;4.43;;;;;;;27.13;48.23;97890.03;2086311;28;20076;-54
2023/08/02 00:49:34;;;;;;;8.70;5.00;;;;;;;27.20;48.57;97895.25;2087721;28;20124;-49
2023/08/02 00:50:36;;;;;;;9.90;4.25;;;;;;;27.26;48.16;97894.94;2085431;28;20386;-50
2023/08/02 00:51:38;;;;;;;14.45;5.03;;;;;;;27.26;48.21;97888.69;2084890;28;20775;-47
2023/08/02 00:52:38;;;;;;;9.00;5.25;;;;;;;27.21;48.43;97884.06;2085435;28;20091;-54
2023/08/02 00:53:39;;;;;;;13.05;5.07;;;;;;;27.26;48.25;97881.31;2085688;28;20052;-47
2023/08/02 00:54:41;;;;;;;8.63;4.47;;;;;;;27.30;48.07;97879.69;2086825;28;20071;-51
2023/08/02 00:55:42;;;;;;;12.45;4.43;;;;;;;27.32;48.04;97880.19;2085921;28;20441;-50
2023/08/02 00:56:44;;;;;;;14.90;5.07;;;;;;;27.35;48.29;97887.81;2086006;28;20048;-55
2023/08/02 00:57:46;;;;;;;14.05;4.30;;;;;;;27.37;47.97;97884.81;2087141;28;22137;-50
2023/08/02 00:58:47;;;;;;;15.63;4.53;;;;;;;27.37;48.25;97884.81;2085022;28;20059;-52
2023/08/02 00:59:48;;;;;;;10.25;4.50;;;;;;;27.37;48.04;97891.06;2086769;28;20313;-53
2023/08/02 01:00:51;;;;;;;13.15;4.30;;;;;;;27.40;47.90;97890.50;2086742;28;20506;-52
2023/08/02 01:01:52;;;;;;;11.05;4.30;;;;;;;27.37;48.21;97895.72;2086907;28;20481;-51
2023/08/02 01:02:53;;;;;;;13.55;4.85;;;;;;;27.37;48.23;97904.69;2086624;28;20049;-54
2023/08/02 01:03:57;;;;;;;10.23;4.90;;;;;;;27.35;48.17;97898.69;2086722;28;20048;-53
2023/08/02 01:04:58;;;;;;;11.07;4.55;;;;;;;27.39;48.29;97896.25;2087917;28;20076;-49
2023/08/02 01:06:03;;;;;;;13.63;3.78;;;;;;;27.39;48.03;97904.44;2086770;28;20136;-52
2023/08/02 01:07:11;;;;;;;11.15;4.22;;;;;;;27.35;48.09;97901.41;2085445;28;20522;-52
2023/08/02 01:08:19;;;;;;;10.48;3.78;;;;;;;27.32;48.66;97896.53;2086538;28;20053;-47
2023/08/02 01:09:28;;;;;;;10.48;4.10;;;;;;;27.28;48.16;97903.66;2086191;28;20049;-54
2023/08/02 01:10:34;;;;;;;15.35;4.70;;;;;;;27.25;48.63;97889.78;2084468;28;20087;-55
2023/08/02 01:11:42;;;;;;;7.20;3.60;;;;;;;27.17;48.74;97894.69;2086743;28;20046;-52
2023/08/02 01:12:45;;;;;;;10.82;4.35;;;;;;;27.16;48.91;97894.97;2084208;28;20072;-50
2023/08/02 01:13:50;;;;;;;10.05;4.43;;;;;;;27.22;48.66;97893.88;2087245;28;20048;-49
2023/08/02 01:14:59;;;;;;;12.77;3.95;;;;;;;27.23;48.71;97892.78;2085680;28;21705;-50
2023/08/02 01:16:04;;;;;;;12.05;4.35;;;;;;;27.25;48.71;97896.03;2085317;28;20888;-50
2023/08/02 01:17:06;;;;;;;10.73;4.68;;;;;;;27.25;48.54;97897.94;2086652;28;20139;-50
2023/08/02 01:18:08;;;;;;;11.98;4.53;;;;;;;27.25;48.85;97892.50;2087330;28;20542;-47
2023/08/02 01:19:10;;;;;;;10.50;4.68;;;;;;;27.27;48.71;97891.09;2084747;28;20055;-50
2023/08/02 01:20:13;;;;;;;14.95;3.83;;;;;;;27.27;48.77;97885.66;2085435;28;20068;-56
2023/08/02 01:21:14;;;;;;;8.45;3.75;;;;;;;27.25;48.55;97887.06;2085285;28;20047;-48
2023/08/02 01:22:16;;;;;;;14.73;4.80;;;;;;;27.24;48.47;97891.66;2085908;28;20410;-47
2023/08/02 01:23:16;;;;;;;8.93;3.97;;;;;;;27.22;48.88;97882.97;2084192;28;20055;-50
2023/08/02 01:24:18;;;;;;;8.60;4.40;;;;;;;27.27;48.70;97880.22;2085755;28;20430;-54
2023/08/02 01:25:20;;;;;;;10.60;4.75;;;;;;;27.30;48.68;97874.25;2085399;28;20134;-48
2023/08/02 01:26:22;;;;;;;11.07;3.92;;;;;;;27.30;48.71;97879.69;2083682;28;20094;-54
2023/08/02 01:27:29;;;;;;;9.93;3.92;;;;;;;27.32;48.96;97888.38;2082999;28;20067;-51
2023/08/02 01:28:33;;;;;;;10.13;5.40;;;;;;;27.32;48.55;97882.94;2084862;28;20266;-55
2023/08/02 01:29:38;;;;;;;8.48;3.88;;;;;;;27.36;48.53;97880.47;2079189;28;20053;-51
2023/08/02 01:30:39;;;;;;;7.88;3.75;;;;;;;27.38;48.60;97887.25;2083883;28;20482;-51
2023/08/02 01:31:43;;;;;;;11.18;5.35;;;;;;;27.42;48.40;97886.72;2083349;28;20049;-48
2023/08/02 01:32:44;;;;;;;11.77;4.07;;;;;;;27.42;48.41;97884.00;2084169;28;20547;-55
2023/08/02 01:33:50;;;;;;;9.68;4.13;;;;;;;27.43;48.45;97888.34;2084702;28;20049;-51
2023/08/02 01:34:51;;;;;;;13.20;5.03;;;;;;;27.43;48.40;97885.59;2084709;28;20084;-51
2023/08/02 01:35:55;;;;;;;9.32;4.78;;;;;;;27.44;48.55;97879.06;2085640;28;20060;-52
2023/08/02 01:36:56;;;;;;;11.20;4.43;;;;;;;27.38;48.60;97879.06;2077003;28;20788;-53
2023/08/02 01:37:57;;;;;;;8.27;3.95;;;;;;;27.39;48.39;97883.44;2084281;28;20059;-47
2023/08/02 01:38:59;;;;;;;15.05;4.28;;;;;;;27.41;48.54;97885.88;2085849;28;20595;-54
2023/08/02 01:40:00;;;;;;;12.27;4.07;;;;;;;27.43;48.59;97888.34;2085448;28;20049;-48
2023/08/02 01:41:02;;;;;;;8.10;3.47;;;;;;;27.45;48.44;97886.16;2084711;28;20044;-49
2023/08/02 01:42:03;;;;;;;9.25;3.83;;;;;;;27.45;48.49;97876.06;2086664;28;20053;-53
2023/08/02 01:43:05;;;;;;;10.48;4.10;;;;;;;27.46;48.31;97865.97;2082873;28;20144;-54
2023/08/02 01:44:06;;;;;;;10.88;4.50;;;;;;;27.43;48.60;97872.00;2083982;28;20457;-50
2023/08/02 01:45:09;;;;;;;17.00;4.28;;;;;;;27.37;48.61;97868.47;2083191;28;20057;-56
2023/08/02 01:46:10;;;;;;;11.63;4.57;;;;;;;27.31;48.94;97870.41;2084834;28;20064;-47
2023/08/02 01:47:11;;;;;;;9.82;4.18;;;;;;;27.33;48.78;97865.50;2084385;28;20052;-54
2023/08/02 01:48:12;;;;;;;7.43;3.40;;;;;;;27.35;48.65;97865.22;2086874;28;20041;-48
2023/08/02 01:49:14;;;;;;;10.85;4.50;;;;;;;27.31;48.93;97867.69;2084685;28;20127;-55
2023/08/02 01:50:15;;;;;;;11.63;4.43;;;;;;;27.36;48.59;97870.41;2083933;28;20083;-51
2023/08/02 01:51:18;;;;;;;12.52;3.92;;;;;;;27.28;48.59;97865.53;2083216;28;20079;-48
2023/08/02 01:52:19;;;;;;;7.93;4.10;;;;;;;27.24;49.00;97864.44;2083447;28;20476;-50
2023/08/02 01:53:21;;;;;;;12.43;4.28;;;;;;;27.27;48.92;97863.88;2077342;28;20049;-55
2023/08/02 01:54:21;;;;;;;14.45;4.65;;;;;;;27.28;48.84;97860.09;2085403;28;20048;-54
2023/08/02 01:55:23;;;;;;;10.18;4.38;;;;;;;27.31;48.62;97864.97;2085138;28;20052;-53
2023/08/02 01:56:24;;;;;;;8.95;4.15;;;;;;;27.33;48.81;97862.78;2085366;28;20079;-51
2023/08/02 01:57:26;;;;;;;9.35;4.40;;;;;;;27.34;48.76;97858.97;2084519;28;20048;-50
2023/08/02 01:58:26;;;;;;;11.98;4.35;;;;;;;27.36;48.88;97856.78;2081013;28;20048;-52
2023/08/02 01:59:27;;;;;;;11.88;4.03;;;;;;;27.38;48.70;97868.19;2084578;28;20056;-53
2023/08/02 02:00:29;;;;;;;11.23;3.78;;;;;;;27.40;48.67;97862.47;2086251;28;20083;-49
2023/08/02 02:01:30;;;;;;;11.32;3.85;;;;;;;27.39;48.67;97871.75;2084893;28;20135;-55
2023/08/02 02:02:31;;;;;;;9.00;3.83;;;;;;;27.38;48.87;97864.66;2084594;28;20429;-55
2023/08/02 02:03:32;;;;;;;8.35;3.47;;;;;;;27.35;48.78;97863.31;2084042;28;20052;-53
2023/08/02 02:04:34;;;;;;;8.60;3.75;;;;;;;27.35;48.76;97865.22;2084620;28;20060;-50
2023/08/02 02:05:35;;;;;;;11.43;3.85;;;;;;;27.32;48.75;97873.94;2083732;28;20135;-54
2023/08/02 02:06:38;;;;;;;7.40;3.88;;;;;;;27.34;48.95;97863.59;2084155;28;20400;-47
2023/08/02 02:07:39;;;;;;;8.10;4.40;;;;;;;27.34;48.82;97867.13;2085426;28;20053;-55
2023/08/02 02:08:41;;;;;;;9.20;3.58;;;;;;;27.34;48.68;97858.97;2086182;28;20060;-55
2023/08/02 02:09:42;;;;;;;8.50;3.88;;;;;;;27.35;48.66;97855.13;2087740;28;20121;-51
2023/08/02 02:10:49;;;;;;;11.10;4.75;;;;;;;27.34;48.58;97858.16;2084674;28;20053;-53
2023/08/02 02:11:49;;;;;;;11.60;4.15;;;;;;;27.28;48.79;97860.09;2085840;28;20140;-50
2023/08/02 02:12:51;;;;;;;6.97;4.50;;;;;;;27.22;49.10;97852.19;2087026;28;20064;-55
2023/08/02 02:13:52;;;;;;;11.05;4.20;;;;;;;27.22;48.87;97855.75;2085323;28;20052;-54
2023/08/02 02:14:53;;;;;;;8.98;3.95;;;;;;;27.19;49.18;97856.28;2084604;28;20056;-55
2023/08/02 02:15:54;;;;;;;12.63;4.28;;;;;;;27.20;49.03;97851.69;2082830;28;20064;-50
2023/08/02 02:16:56;;;;;;;17.85;5.28;;;;;;;27.16;49.19;97854.97;2085928;28;20049;-50
2023/08/02 02:17:57;;;;;;;9.10;3.63;;;;;;;27.20;49.17;97859.84;2088115;28;20192;-51
2023/08/02 02:18:58;;;;;;;11.98;3.65;;;;;;;27.20;49.24;97857.94;2086375;28;20205;-53
2023/08/02 02:19:59;;;;;;;9.43;3.92;;;;;;;27.19;49.43;97864.47;2087960;28;20048;-49
2023/08/02 02:21:01;;;;;;;17.33;4.20;;;;;;;27.14;49.37;97859.03;2087021;28;20098;-56
2023/08/02 02:22:03;;;;;;;8.70;4.22;;;;;;;27.12;49.60;97858.47;2088722;28;20056;-55
2023/08/02 02:23:05;;;;;;;11.75;4.00;;;;;;;27.17;49.42;97858.50;2084673;28;20060;-52
2023/08/02 02:24:06;;;;;;;13.23;4.78;;;;;;;27.17;49.38;97853.88;2083393;28;20713;-53
2023/08/02 02:25:08;;;;;;;9.60;3.28;;;;;;;27.20;49.19;97857.13;2085734;28;20101;-50
2023/08/02 02:26:09;;;;;;;6.13;3.10;;;;;;;27.22;49.18;97858.47;2085460;28;20080;-47
2023/08/02 02:27:11;;;;;;;15.18;3.95;;;;;;;27.19;49.16;97850.84;2084233;28;20522;-54
2023/08/02 02:28:12;;;;;;;11.60;4.05;;;;;;;27.18;49.09;97847.31;2086422;28;20083;-54
2023/08/02 02:29:14;;;;;;;10.27;4.10;;;;;;;27.21;49.45;97848.66;2086073;28;20102;-52
2023/08/02 02:30:14;;;;;;;7.70;3.65;;;;;;;27.17;49.24;97845.69;2086980;28;20075;-57
2023/08/02 02:31:16;;;;;;;5.97;3.60;;;;;;;27.16;49.46;97845.97;2086983;28;20056;-49
2023/08/02 02:32:17;;;;;;;8.93;4.20;;;;;;;27.13;49.71;97846.50;2084884;28;20071;-53
2023/08/02 02:33:19;;;;;;;11.75;3.40;;;;;;;27.15;49.42;97849.75;2086555;28;20052;-48
2023/08/02 02:34:20;;;;;;;8.75;4.15;;;;;;;27.17;49.24;97845.69;2086625;28;20041;-50
2023/08/02 02:35:21;;;;;;;13.32;3.25;;;;;;;27.16;49.48;97843.25;2085240;28;20416;-53
2023/08/02 02:36:22;;;;;;;10.48;3.90;;;;;;;27.14;49.42;97848.94;2086521;28;20051;-50
2023/08/02 02:37:25;;;;;;;8.00;3.88;;;;;;;27.18;49.32;97843.78;2088575;28;20323;-50
2023/08/02 02:38:25;;;;;;;11.75;3.70;;;;;;;27.21;49.28;97847.88;2086549;28;20423;-50
2023/08/02 02:39:27;;;;;;;10.13;3.55;;;;;;;27.22;49.23;97839.44;2085584;28;20045;-53
2023/08/02 02:40:28;;;;;;;10.50;3.80;;;;;;;27.24;49.04;97848.09;2086016;28;20057;-54
2023/08/02 02:41:29;;;;;;;11.40;3.78;;;;;;;27.26;48.78;97848.66;2084581;28;20059;-56
2023/08/02 02:42:30;;;;;;;10.82;3.92;;;;;;;27.28;49.15;97843.75;2084182;28;20051;-48
2023/08/02 02:43:31;;;;;;;9.75;3.88;;;;;;;27.29;49.21;97847.28;2086534;28;20090;-55
2023/08/02 02:44:42;;;;;;;8.27;3.47;;;;;;;27.26;49.13;97853.28;2084761;28;20052;-53
2023/08/02 02:45:43;;;;;;;8.63;3.75;;;;;;;27.23;49.06;97841.03;2086868;28;20089;-54
2023/08/02 02:46:45;;;;;;;11.32;4.47;;;;;;;27.20;49.29;97836.16;2086474;28;20051;-55
2023/08/02 02:47:46;;;;;;;9.73;4.60;;;;;;;27.17;49.14;97839.44;2085575;28;20483;-53
2023/08/02 02:48:47;;;;;;;13.43;4.53;;;;;;;27.16;49.26;97835.06;2083163;28;20063;-56
2023/08/02 02:49:48;;;;;;;11.60;4.00;;;;;;;27.17;49.07;97836.72;2085544;28;20063;-48
2023/08/02 02:50:50;;;;;;;7.90;3.53;;;;;;;27.14;49.61;97831.81;2085402;28;20187;-51
2023/08/02 02:51:51;;;;;;;10.85;3.58;;;;;;;27.18;49.52;97839.16;2086625;28;20075;-47
2023/08/02 02:52:54;;;;;;;9.85;3.72;;;;;;;27.20;49.40;97841.59;2084077;28;20060;-54
2023/08/02 02:53:54;;;;;;;10.45;3.33;;;;;;;27.20;49.40;97844.31;2086799;28;20297;-53
2023/08/02 02:54:56;;;;;;;5.85;3.72;;;;;;;27.17;49.11;97837.53;2086301;28;20041;-50
2023/08/02 02:55:57;;;;;;;8.70;4.05;;;;;;;27.21;49.14;97835.06;2087456;28;20076;-47
2023/08/02 02:56:59;;;;;;;8.52;3.90;;;;;;;27.24;49.00;97847.28;2085895;28;20071;-51
2023/08/02 02:57:59;;;;;;;9.68;3.95;;;;;;;27.22;49.18;97844.88;2086744;28;20487;-52
2023/08/02 02:59:01;;;;;;;13.63;4.05;;;;;;;27.22;49.28;97847.59;2086342;28;20041;-53
2023/08/02 03:00:03;;;;;;;9.18;3.92;;;;;;;27.25;48.94;97844.31;2085515;28;20052;-53
2023/08/02 03:01:04;;;;;;;10.20;4.15;;;;;;;27.23;49.19;97846.50;2084875;28;20048;-51
2023/08/02 03:02:05;;;;;;;10.48;3.40;;;;;;;27.23;49.29;97846.50;2083786;28;20113;-52
2023/08/02 03:03:06;;;;;;;7.55;3.33;;;;;;;27.24;49.13;97842.66;2085383;28;20126;-53
2023/08/02 03:04:08;;;;;;;9.25;3.78;;;;;;;27.25;49.35;97838.06;2088217;28;21675;-48
2023/08/02 03:05:08;;;;;;;7.35;3.35;;;;;;;27.28;49.10;97837.50;2085931;28;20079;-52
2023/08/02 03:06:09;;;;;;;6.75;3.83;;;;;;;27.27;49.12;97835.84;2087580;28;20517;-50
2023/08/02 03:07:11;;;;;;;13.40;4.32;;;;;;;27.24;49.21;97825.53;2085368;28;20049;-50
2023/08/02 03:08:14;;;;;;;15.40;3.28;;;;;;;27.26;49.30;97837.75;2085970;28;20502;-48
2023/08/02 03:09:16;;;;;;;7.93;3.63;;;;;;;27.25;48.92;97838.88;2085902;28;20040;-47
2023/08/02 03:10:17;;;;;;;11.10;3.80;;;;;;;27.18;49.45;97841.06;2083614;28;20086;-55
2023/08/02 03:11:18;;;;;;;11.38;4.82;;;;;;;27.12;49.50;97844.88;2086968;28;20040;-47
2023/08/02 03:12:19;;;;;;;15.10;4.60;;;;;;;27.09;49.48;97840.00;2086188;28;20090;-52
2023/08/02 03:13:21;;;;;;;7.72;3.70;;;;;;;27.14;49.60;97846.22;2087399;28;20049;-56
2023/08/02 03:14:22;;;;;;;14.77;4.25;;;;;;;27.16;49.56;97845.97;2085063;28;20084;-53
2023/08/02 03:15:22;;;;;;;5.55;3.60;;;;;;;27.12;49.58;97836.72;2084957;28;20053;-54
2023/08/02 03:16:24;;;;;;;11.35;4.22;;;;;;;27.13;49.73;97846.50;2083954;28;20059;-48
2023/08/02 03:17:26;;;;;;;16.58;4.18;;;;;;;27.14;49.68;97848.94;2087052;28;20056;-50
2023/08/02 03:18:28;;;;;;;7.25;3.30;;;;;;;27.10;49.59;97842.41;2086901;28;20071;-52
2023/08/02 03:19:29;;;;;;;9.95;3.88;;;;;;;27.09;49.91;97845.44;2085560;28;20079;-54
2023/08/02 03:20:30;;;;;;;7.50;3.05;;;;;;;27.15;49.78;97844.31;2086568;28;20078;-49
2023/08/02 03:21:32;;;;;;;11.57;3.53;;;;;;;27.19;49.48;97848.13;2085457;28;20048;-54
2023/08/02 03:22:34;;;;;;;10.32;3.90;;;;;;;27.21;49.66;97843.22;2086413;28;20414;-53
2023/08/02 03:23:37;;;;;;;10.32;3.95;;;;;;;27.25;49.31;97848.94;2085769;28;20057;-50
2023/08/02 03:24:37;;;;;;;13.10;4.50;;;;;;;27.20;49.43;97844.31;2086907;28;20135;-56
2023/08/02 03:25:39;;;;;;;8.82;3.60;;;;;;;27.22;49.32;97850.31;2085437;28;20053;-49
2023/08/02 03:26:40;;;;;;;9.77;3.70;;;;;;;27.16;49.54;97852.25;2085262;28;20057;-52
2023/08/02 03:27:42;;;;;;;11.30;3.97;;;;;;;27.11;49.74;97854.94;2085826;28;20125;-54
2023/08/02 03:28:43;;;;;;;9.90;3.88;;;;;;;27.08;50.08;97854.69;2082327;28;20562;-56
2023/08/02 03:29:45;;;;;;;11.85;3.50;;;;;;;27.10;49.77;97857.94;2087562;28;20052;-49
2023/08/02 03:30:46;;;;;;;13.38;4.55;;;;;;;27.15;49.63;97856.00;2085769;28;20056;-50
2023/08/02 03:31:48;;;;;;;9.35;3.33;;;;;;;27.18;49.39;97863.66;2084744;28;20132;-53
2023/08/02 03:32:49;;;;;;;9.98;4.20;;;;;;;27.21;49.47;97865.00;2085198;28;20399;-52
2023/08/02 03:33:51;;;;;;;8.82;4.18;;;;;;;27.20;49.34;97862.56;2086191;28;20090;-54
2023/08/02 03:34:51;;;;;;;9.23;3.67;;;;;;;27.16;49.65;97867.75;2084011;28;20044;-52
2023/08/02 03:35:53;;;;;;;13.38;4.07;;;;;;;27.13;49.50;97863.63;2085003;28;20048;-50
2023/08/02 03:36:55;;;;;;;12.20;4.13;;;;;;;27.10;49.71;97868.81;2085496;28;20056;-55
2023/08/02 03:37:56;;;;;;;9.73;3.90;;;;;;;27.10;49.77;97863.38;2084438;28;20148;-54
2023/08/02 03:38:59;;;;;;;10.02;3.70;;;;;;;27.12;49.55;97872.09;2086836;28;20364;-50
2023/08/02 03:40:00;;;;;;;8.13;3.67;;;;;;;27.07;49.73;97875.63;2085813;28;20072;-54
2023/08/02 03:41:02;;;;;;;13.75;3.97;;;;;;;27.03;49.95;97874.56;2086540;28;20037;-52
2023/08/02 03:42:03;;;;;;;12.35;4.22;;;;;;;27.00;49.78;97868.88;2087098;28;20055;-49
2023/08/02 03:43:05;;;;;;;9.52;4.10;;;;;;;27.00;49.84;97866.16;2087153;28;20458;-54
2023/08/02 03:44:06;;;;;;;15.00;5.00;;;;;;;27.02;49.98;97866.69;2083561;28;20045;-53
2023/08/02 03:45:07;;;;;;;9.18;3.25;;;;;;;27.01;49.80;97865.06;2083862;28;20411;-51
2023/08/02 03:46:09;;;;;;;7.43;3.40;;;;;;;27.02;50.01;97863.97;2086235;28;20052;-53
2023/08/02 03:47:10;;;;;;;9.55;2.90;;;;;;;27.05;50.03;97866.13;2085703;28;20099;-52
2023/08/02 03:48:11;;;;;;;12.38;4.43;;;;;;;27.05;49.94;97868.84;2082824;28;20061;-50
2023/08/02 03:49:12;;;;;;;9.82;3.28;;;;;;;27.08;49.57;97871.00;2085654;28;20078;-53
2023/08/02 03:50:14;;;;;;;6.75;3.20;;;;;;;27.08;49.87;97871.00;2085269;28;20048;-53
2023/08/02 03:51:15;;;;;;;13.18;4.20;;;;;;;27.08;49.75;97879.16;2085638;28;20052;-52
2023/08/02 03:52:16;;;;;;;10.88;4.63;;;;;;;27.11;49.58;97875.91;2083550;28;20118;-50
2023/08/02 03:53:17;;;;;;;12.23;4.43;;;;;;;27.13;49.71;97873.72;2083647;28;20054;-55
2023/08/02 03:54:21;;;;;;;9.50;3.15;;;;;;;27.14;49.92;97872.63;2085660;28;20064;-51
2023/08/02 03:55:21;;;;;;;5.85;3.05;;;;;;;27.14;49.44;97876.16;2082800;28;20088;-53
2023/08/02 03:56:23;;;;;;;9.88;3.67;;;;;;;27.14;49.46;97872.63;2086256;28;20044;-51
2023/08/02 03:57:24;;;;;;;8.77;3.85;;;;;;;27.15;49.49;97868.81;2076377;28;20374;-47
2023/08/02 03:58:26;;;;;;;14.02;4.43;;;;;;;27.15;49.72;97866.09;2078283;28;20052;-54
2023/08/02 03:59:26;;;;;;;11.75;3.53;;;;;;;27.12;49.72;97877.53;2076878;28;20077;-53
2023/08/02 04:00:28;;;;;;;10.35;3.78;;;;;;;27.14;49.68;97880.81;2077792;28;20045;-48
2023/08/02 04:01:29;;;;;;;9.30;3.25;;;;;;;27.11;49.46;97884.91;2076084;28;20042;-50
2023/08/02 04:02:32;;;;;;;9.40;3.58;;;;;;;27.10;49.71;97875.06;2077259;28;20216;-51
2023/08/02 04:03:33;;;;;;;9.18;4.15;;;;;;;27.03;50.03;97880.03;2076738;28;20045;-55
2023/08/02 04:04:35;;;;;;;16.02;5.28;;;;;;;27.00;50.18;97871.59;2076384;28;20136;-52
2023/08/02 04:05:36;;;;;;;7.90;3.75;;;;;;;26.99;50.20;97878.13;2074573;28;20114;-54
2023/08/02 04:06:37;;;;;;;10.77;3.72;;;;;;;27.00;49.87;97877.03;2077251;28;20046;-51
2023/08/02 04:07:38;;;;;;;9.75;3.80;;;;;;;26.99;50.12;97878.94;2075293;28;20049;-49
2023/08/02 04:08:40;;;;;;;8.80;3.25;;;;;;;27.00;50.14;97883.31;2076234;28;20570;-55
2023/08/02 04:09:42;;;;;;;12.05;3.92;;;;;;;26.97;50.31;97878.41;2077155;28;20052;-50
2023/08/02 04:10:44;;;;;;;11.63;4.00;;;;;;;26.99;49.93;97883.56;2075672;28;20053;-54
2023/08/02 04:11:45;;;;;;;11.15;3.58;;;;;;;27.02;50.13;97880.28;2077590;28;20077;-50
2023/08/02 04:12:47;;;;;;;16.17;3.83;;;;;;;27.03;49.98;97888.19;2078982;28;20052;-48
2023/08/02 04:13:49;;;;;;;7.45;3.05;;;;;;;27.04;49.73;97886.28;2074521;28;20057;-53
2023/08/02 04:14:51;;;;;;;7.68;3.33;;;;;;;27.02;50.04;97886.53;2079656;28;20418;-52
2023/08/02 04:15:51;;;;;;;8.88;3.42;;;;;;;27.02;50.03;97891.97;2085204;28;21463;-53
2023/08/02 04:16:53;;;;;;;11.45;3.53;;;;;;;27.00;50.08;97890.66;2086843;28;20052;-52
2023/08/02 04:17:54;;;;;;;9.57;3.50;;;;;;;27.02;50.13;97885.72;2084924;28;20488;-51
2023/08/02 04:18:55;;;;;;;12.13;3.03;;;;;;;27.01;50.05;97886.84;2084288;28;20052;-47
2023/08/02 04:19:58;;;;;;;9.02;3.90;;;;;;;27.03;49.91;97887.38;2084280;28;20048;-50
2023/08/02 04:21:00;;;;;;;10.48;3.22;;;;;;;27.02;49.77;97883.00;2084468;28;20519;-56
2023/08/02 04:22:01;;;;;;;8.52;3.28;;;;;;;27.03;50.19;97880.03;2083512;28;20267;-51
2023/08/02 04:23:02;;;;;;;11.57;3.53;;;;;;;27.01;49.94;97884.91;2086428;28;20060;-56
2023/08/02 04:24:03;;;;;;;12.32;4.70;;;;;;;27.01;50.21;97882.19;2084108;28;20056;-53
2023/08/02 04:25:07;;;;;;;7.35;3.03;;;;;;;27.01;49.88;97884.91;2083024;28;20040;-55
2023/08/02 04:26:11;;;;;;;11.05;3.97;;;;;;;27.03;50.26;97885.47;2084996;28;20079;-56
2023/08/02 04:27:13;;;;;;;15.60;4.20;;;;;;;27.00;50.14;97883.31;2084154;28;20052;-47
2023/08/02 04:28:13;;;;;;;9.88;3.05;;;;;;;26.98;50.24;97887.38;2082948;28;20527;-51
2023/08/02 04:29:15;;;;;;;8.90;2.95;;;;;;;26.97;50.14;97878.41;2086098;28;20352;-54
2023/08/02 04:30:16;;;;;;;6.60;3.47;;;;;;;26.96;50.16;97887.66;2082904;28;20125;-53
2023/08/02 04:31:18;;;;;;;7.97;3.75;;;;;;;26.94;50.30;97882.50;2082574;28;20517;-51
2023/08/02 04:32:18;;;;;;;5.35;3.15;;;;;;;27.00;50.05;97885.22;2084778;28;20048;-55
2023/08/02 04:33:21;;;;;;;8.82;3.42;;;;;;;27.03;50.15;97879.22;2085770;28;20415;-50
2023/08/02 04:34:22;;;;;;;15.13;3.67;;;;;;;27.00;50.08;97879.78;2085764;28;20643;-49
2023/08/02 04:35:23;;;;;;;9.73;3.72;;;;;;;27.01;50.11;97884.09;2085017;28;20053;-52
2023/08/02 04:36:24;;;;;;;8.32;2.70;;;;;;;27.04;50.04;97883.56;2083728;28;20565;-53
2023/08/02 04:37:26;;;;;;;11.38;4.40;;;;;;;27.04;49.86;97887.09;2084549;28;20526;-53
2023/08/02 04:38:27;;;;;;;12.95;4.30;;;;;;;27.04;49.82;97889.00;2083637;28;20492;-52
2023/08/02 04:39:29;;;;;;;6.68;3.25;;;;;;;27.06;49.83;97889.53;2083912;28;20052;-51
2023/08/02 04:40:31;;;;;;;10.35;3.60;;;;;;;27.05;49.96;97888.72;2081334;28;20049;-53
2023/08/02 04:41:33;;;;;;;11.13;3.63;;;;;;;27.03;50.05;97887.38;2088242;28;20137;-54
2023/08/02 04:42:33;;;;;;;14.90;3.40;;;;;;;27.03;49.95;97884.66;2085619;28;20432;-49
2023/08/02 04:43:35;;;;;;;11.23;4.28;;;;;;;27.04;50.09;97889.00;2087980;28;20049;-50
2023/08/02 04:44:36;;;;;;;8.98;3.47;;;;;;;27.01;50.35;97886.84;2085499;28;20087;-51
2023/08/02 04:45:38;;;;;;;13.10;3.70;;;;;;;27.04;50.02;97880.84;2085933;28;20439;-49
2023/08/02 04:46:38;;;;;;;9.82;3.63;;;;;;;27.02;50.21;97885.72;2085007;28;20082;-52
2023/08/02 04:47:40;;;;;;;15.13;5.18;;;;;;;27.06;50.03;97892.25;2085862;28;20414;-51
2023/08/02 04:48:41;;;;;;;11.65;3.75;;;;;;;27.08;50.14;97893.63;2085119;28;22659;-54